sensor_id;sensor_type;location;lat;lon;timestamp;pressure;altitude;pressure_sealevel;temperature;humidity
967;BME280;56108;48.730;9.304;2023-06-26T00:02:09;97481.56;;;19.37;66.34
967;BME280;56108;48.730;9.304;2023-06-26T00:04:17;97476.78;;;19.31;66.71
967;BME280;56108;48.730;9.304;2023-06-26T00:06:28;97482.69;;;19.26;67.01
967;BME280;56108;48.730;9.304;2023-06-26T00:08:36;97478.16;;;19.27;67.22
967;BME280;56108;48.730;9.304;2023-06-26T00:10:44;97481.34;;;19.22;67.80
967;BME280;56108;48.730;9.304;2023-06-26T00:12:55;97485.19;;;19.20;67.86
967;BME280;56108;48.730;9.304;2023-06-26T00:15:03;97484.00;;;19.14;68.32
967;BME280;56108;48.730;9.304;2023-06-26T00:17:12;97485.34;;;19.18;68.14
967;BME280;56108;48.730;9.304;2023-06-26T00:19:22;97487.88;;;19.20;67.93
967;BME280;56108;48.730;9.304;2023-06-26T00:21:34;97487.03;;;19.19;68.01
967;BME280;56108;48.730;9.304;2023-06-26T00:23:42;97489.19;;;19.08;68.79
967;BME280;56108;48.730;9.304;2023-06-26T00:25:52;97486.31;;;19.09;68.36
967;BME280;56108;48.730;9.304;2023-06-26T00:28:00;97483.75;;;18.99;69.23
967;BME280;56108;48.730;9.304;2023-06-26T00:30:09;97491.00;;;18.99;69.10
967;BME280;56108;48.730;9.304;2023-06-26T00:32:17;97485.91;;;18.88;69.84
967;BME280;56108;48.730;9.304;2023-06-26T00:34:25;97487.22;;;18.84;70.10
967;BME280;56108;48.730;9.304;2023-06-26T00:36:36;97491.63;;;18.85;70.00
967;BME280;56108;48.730;9.304;2023-06-26T00:38:44;97487.41;;;18.82;70.48
967;BME280;56108;48.730;9.304;2023-06-26T00:40:52;97487.50;;;18.72;70.85
967;BME280;56108;48.730;9.304;2023-06-26T00:43:01;97485.72;;;18.63;71.83
967;BME280;56108;48.730;9.304;2023-06-26T00:45:09;97484.88;;;18.63;71.71
967;BME280;56108;48.730;9.304;2023-06-26T00:47:18;97479.91;;;18.68;72.12
967;BME280;56108;48.730;9.304;2023-06-26T00:49:27;97483.03;;;18.63;72.70
967;BME280;56108;48.730;9.304;2023-06-26T00:51:38;97481.88;;;18.66;72.97
967;BME280;56108;48.730;9.304;2023-06-26T00:53:47;97474.63;;;18.66;73.36
967;BME280;56108;48.730;9.304;2023-06-26T00:55:56;97477.06;;;18.51;74.29
967;BME280;56108;48.730;9.304;2023-06-26T00:58:06;97481.72;;;18.41;75.23
967;BME280;56108;48.730;9.304;2023-06-26T01:00:15;97473.81;;;18.40;75.46
967;BME280;56108;48.730;9.304;2023-06-26T01:02:23;97468.78;;;18.45;75.36
967;BME280;56108;48.730;9.304;2023-06-26T01:04:38;97470.22;;;18.31;76.02
967;BME280;56108;48.730;9.304;2023-06-26T01:06:55;97468.34;;;18.32;76.44
967;BME280;56108;48.730;9.304;2023-06-26T01:09:03;97464.31;;;18.28;77.09
967;BME280;56108;48.730;9.304;2023-06-26T01:11:13;97464.53;;;18.16;77.73
967;BME280;56108;48.730;9.304;2023-06-26T01:13:22;97472.97;;;18.13;78.05
967;BME280;56108;48.730;9.304;2023-06-26T01:15:31;97468.50;;;18.04;79.15
967;BME280;56108;48.730;9.304;2023-06-26T01:17:40;97468.44;;;17.96;80.94
967;BME280;56108;48.730;9.304;2023-06-26T01:19:51;97473.28;;;17.92;82.24
967;BME280;56108;48.730;9.304;2023-06-26T01:22:08;97469.22;;;17.88;83.36
967;BME280;56108;48.730;9.304;2023-06-26T01:24:19;97460.97;;;17.90;84.33
967;BME280;56108;48.730;9.304;2023-06-26T01:26:35;97466.69;;;17.87;85.11
967;BME280;56108;48.730;9.304;2023-06-26T01:28:45;97459.91;;;17.83;86.15
967;BME280;56108;48.730;9.304;2023-06-26T01:30:54;97463.22;;;17.77;87.06
967;BME280;56108;48.730;9.304;2023-06-26T01:33:03;97456.59;;;17.71;88.34
967;BME280;56108;48.730;9.304;2023-06-26T01:35:12;97460.75;;;17.65;89.06
967;BME280;56108;48.730;9.304;2023-06-26T01:37:21;97452.13;;;17.62;90.18
967;BME280;56108;48.730;9.304;2023-06-26T01:39:29;97444.22;;;17.60;90.79
967;BME280;56108;48.730;9.304;2023-06-26T01:41:40;97456.13;;;17.58;91.51
967;BME280;56108;48.730;9.304;2023-06-26T01:44:01;97446.66;;;17.54;92.15
967;BME280;56108;48.730;9.304;2023-06-26T01:46:16;97446.66;;;17.54;92.91
967;BME280;56108;48.730;9.304;2023-06-26T01:48:28;97440.22;;;17.46;93.55
967;BME280;56108;48.730;9.304;2023-06-26T01:50:39;97445.59;;;17.46;94.19
967;BME280;56108;48.730;9.304;2023-06-26T01:52:55;97440.81;;;17.40;95.08
967;BME280;56108;48.730;9.304;2023-06-26T01:55:16;97444.34;;;17.41;95.24
967;BME280;56108;48.730;9.304;2023-06-26T01:57:30;97444.34;;;17.41;94.66
967;BME280;56108;48.730;9.304;2023-06-26T01:59:40;97449.91;;;17.39;94.72
967;BME280;56108;48.730;9.304;2023-06-26T02:01:49;97442.13;;;17.36;94.84
967;BME280;56108;48.730;9.304;2023-06-26T02:03:57;97443.28;;;17.34;95.30
967;BME280;56108;48.730;9.304;2023-06-26T02:06:08;97441.34;;;17.26;96.19
967;BME280;56108;48.730;9.304;2023-06-26T02:08:16;97438.25;;;17.21;96.69
967;BME280;56108;48.730;9.304;2023-06-26T02:10:30;97436.56;;;17.20;96.62
967;BME280;56108;48.730;9.304;2023-06-26T02:12:41;97436.19;;;17.15;97.34
967;BME280;56108;48.730;9.304;2023-06-26T02:14:52;97443.19;;;17.08;98.03
967;BME280;56108;48.730;9.304;2023-06-26T02:17:02;97436.25;;;17.05;98.68
967;BME280;56108;48.730;9.304;2023-06-26T02:19:10;97445.06;;;16.98;98.97
967;BME280;56108;48.730;9.304;2023-06-26T02:21:26;97434.78;;;16.93;99.42
967;BME280;56108;48.730;9.304;2023-06-26T02:23:34;97442.13;;;16.91;100.00
967;BME280;56108;48.730;9.304;2023-06-26T02:25:43;97449.25;;;16.82;100.00
967;BME280;56108;48.730;9.304;2023-06-26T02:27:53;97438.75;;;16.89;100.00
967;BME280;56108;48.730;9.304;2023-06-26T02:30:02;97439.34;;;16.83;100.00
967;BME280;56108;48.730;9.304;2023-06-26T02:32:14;97446.00;;;16.79;100.00
967;BME280;56108;48.730;9.304;2023-06-26T02:34:22;97445.78;;;16.72;100.00
967;BME280;56108;48.730;9.304;2023-06-26T02:36:30;97440.13;;;16.65;100.00
967;BME280;56108;48.730;9.304;2023-06-26T02:38:42;97439.41;;;16.63;100.00
967;BME280;56108;48.730;9.304;2023-06-26T02:40:50;97446.22;;;16.58;100.00
967;BME280;56108;48.730;9.304;2023-06-26T02:43:02;97444.81;;;16.54;100.00
967;BME280;56108;48.730;9.304;2023-06-26T02:45:10;97443.13;;;16.53;100.00
967;BME280;56108;48.730;9.304;2023-06-26T02:47:18;97447.38;;;16.55;100.00
967;BME280;56108;48.730;9.304;2023-06-26T02:49:27;97448.81;;;16.50;100.00
967;BME280;56108;48.730;9.304;2023-06-26T02:51:35;97447.53;;;16.44;100.00
967;BME280;56108;48.730;9.304;2023-06-26T02:53:50;97444.16;;;16.42;100.00
967;BME280;56108;48.730;9.304;2023-06-26T02:55:58;97446.69;;;16.43;100.00
967;BME280;56108;48.730;9.304;2023-06-26T02:58:11;97446.84;;;16.42;100.00
967;BME280;56108;48.730;9.304;2023-06-26T03:00:19;97450.22;;;16.44;100.00
967;BME280;56108;48.730;9.304;2023-06-26T03:02:30;97458.59;;;16.41;100.00
967;BME280;56108;48.730;9.304;2023-06-26T03:04:38;97445.84;;;16.43;100.00
967;BME280;56108;48.730;9.304;2023-06-26T03:06:50;97449.94;;;16.47;99.72
967;BME280;56108;48.730;9.304;2023-06-26T03:08:59;97446.69;;;16.43;100.00
967;BME280;56108;48.730;9.304;2023-06-26T03:11:09;97451.94;;;16.45;100.00
967;BME280;56108;48.730;9.304;2023-06-26T03:13:21;97450.38;;;16.42;100.00
967;BME280;56108;48.730;9.304;2023-06-26T03:15:29;97444.72;;;16.46;100.00
967;BME280;56108;48.730;9.304;2023-06-26T03:17:37;97446.25;;;16.48;100.00
967;BME280;56108;48.730;9.304;2023-06-26T03:19:50;97446.97;;;16.50;100.00
967;BME280;56108;48.730;9.304;2023-06-26T03:22:01;97444.56;;;16.47;100.00
967;BME280;56108;48.730;9.304;2023-06-26T03:24:09;97446.41;;;16.47;100.00
967;BME280;56108;48.730;9.304;2023-06-26T03:26:17;97445.13;;;16.51;100.00
967;BME280;56108;48.730;9.304;2023-06-26T03:28:29;97452.47;;;16.49;100.00
967;BME280;56108;48.730;9.304;2023-06-26T03:30:38;97449.50;;;16.52;100.00
967;BME280;56108;48.730;9.304;2023-06-26T03:32:47;97453.59;;;16.56;100.00
967;BME280;56108;48.730;9.304;2023-06-26T03:34:55;97456.00;;;16.49;100.00
967;BME280;56108;48.730;9.304;2023-06-26T03:37:05;97449.38;;;16.43;100.00
967;BME280;56108;48.730;9.304;2023-06-26T03:39:13;97448.69;;;16.41;100.00
967;BME280;56108;48.730;9.304;2023-06-26T03:41:21;97454.06;;;16.41;100.00
967;BME280;56108;48.730;9.304;2023-06-26T03:43:32;97456.47;;;16.44;100.00
967;BME280;56108;48.730;9.304;2023-06-26T03:46:09;97457.31;;;16.45;100.00
967;BME280;56108;48.730;9.304;2023-06-26T03:48:17;97451.63;;;16.48;100.00
967;BME280;56108;48.730;9.304;2023-06-26T03:50:26;97455.31;;;16.47;100.00
967;BME280;56108;48.730;9.304;2023-06-26T03:52:37;97457.00;;;16.48;100.00
967;BME280;56108;48.730;9.304;2023-06-26T03:54:51;97461.94;;;16.53;100.00
967;BME280;56108;48.730;9.304;2023-06-26T03:56:59;97460.22;;;16.61;100.00
967;BME280;56108;48.730;9.304;2023-06-26T03:59:10;97461.47;;;16.67;100.00
967;BME280;56108;48.730;9.304;2023-06-26T04:01:23;97460.75;;;16.75;100.00
967;BME280;56108;48.730;9.304;2023-06-26T04:03:37;97461.28;;;16.78;100.00
967;BME280;56108;48.730;9.304;2023-06-26T04:05:47;97466.22;;;16.83;100.00
967;BME280;56108;48.730;9.304;2023-06-26T04:07:56;97469.13;;;16.99;100.00
967;BME280;56108;48.730;9.304;2023-06-26T04:10:05;97469.47;;;17.32;100.00
967;BME280;56108;48.730;9.304;2023-06-26T04:12:13;97473.25;;;18.10;94.96
967;BME280;56108;48.730;9.304;2023-06-26T04:14:24;97488.44;;;19.32;83.98
967;BME280;56108;48.730;9.304;2023-06-26T04:16:32;97492.28;;;20.28;73.75
967;BME280;56108;48.730;9.304;2023-06-26T04:18:41;97494.94;;;20.85;69.70
967;BME280;56108;48.730;9.304;2023-06-26T04:21:04;97500.72;;;20.66;70.42
967;BME280;56108;48.730;9.304;2023-06-26T04:23:13;97509.09;;;21.74;66.38
967;BME280;56108;48.730;9.304;2023-06-26T04:25:21;97517.41;;;21.96;63.43
967;BME280;56108;48.730;9.304;2023-06-26T04:27:34;97522.97;;;23.15;59.84
967;BME280;56108;48.730;9.304;2023-06-26T04:29:48;97544.47;;;24.12;55.37
967;BME280;56108;48.730;9.304;2023-06-26T04:31:56;97543.31;;;24.64;53.47
967;BME280;56108;48.730;9.304;2023-06-26T04:34:04;97543.47;;;24.63;51.89
967;BME280;56108;48.730;9.304;2023-06-26T04:36:12;97527.84;;;23.20;57.12
967;BME280;56108;48.730;9.304;2023-06-26T04:38:21;97525.47;;;23.32;56.16
967;BME280;56108;48.730;9.304;2023-06-26T04:40:29;97536.94;;;23.93;54.67
967;BME280;56108;48.730;9.304;2023-06-26T04:42:37;97512.06;;;22.71;58.80
967;BME280;56108;48.730;9.304;2023-06-26T04:44:48;97522.91;;;23.75;56.07
967;BME280;56108;48.730;9.304;2023-06-26T04:46:56;97534.00;;;24.16;52.86
967;BME280;56108;48.730;9.304;2023-06-26T04:49:05;97539.69;;;25.13;50.85
967;BME280;56108;48.730;9.304;2023-06-26T04:51:13;97551.72;;;26.21;46.95
967;BME280;56108;48.730;9.304;2023-06-26T04:53:22;97560.38;;;27.31;43.46
967;BME280;56108;48.730;9.304;2023-06-26T04:55:30;97574.41;;;28.51;41.21
967;BME280;56108;48.730;9.304;2023-06-26T04:57:38;97556.13;;;27.48;43.49
967;BME280;56108;48.730;9.304;2023-06-26T04:59:49;97544.38;;;25.67;46.46
967;BME280;56108;48.730;9.304;2023-06-26T05:01:57;97557.69;;;27.89;42.67
967;BME280;56108;48.730;9.304;2023-06-26T05:04:07;97564.69;;;27.65;41.20
967;BME280;56108;48.730;9.304;2023-06-26T05:06:15;97541.38;;;25.56;46.50
967;BME280;56108;48.730;9.304;2023-06-26T05:08:24;97531.56;;;25.61;46.94
967;BME280;56108;48.730;9.304;2023-06-26T05:10:32;97533.19;;;24.58;50.48
967;BME280;56108;48.730;9.304;2023-06-26T05:12:42;97528.72;;;24.51;50.12
967;BME280;56108;48.730;9.304;2023-06-26T05:14:53;97521.13;;;24.25;51.10
967;BME280;56108;48.730;9.304;2023-06-26T05:17:01;97516.06;;;24.92;50.03
967;BME280;56108;48.730;9.304;2023-06-26T05:19:09;97521.56;;;24.71;50.29
967;BME280;56108;48.730;9.304;2023-06-26T05:21:18;97529.38;;;25.91;47.94
967;BME280;56108;48.730;9.304;2023-06-26T05:23:26;97531.59;;;26.82;45.68
967;BME280;56108;48.730;9.304;2023-06-26T05:25:42;97554.34;;;28.57;41.28
967;BME280;56108;48.730;9.304;2023-06-26T05:28:06;97546.88;;;27.43;43.35
967;BME280;56108;48.730;9.304;2023-06-26T05:30:19;97541.88;;;26.93;44.80
967;BME280;56108;48.730;9.304;2023-06-26T05:32:30;97565.56;;;29.05;39.96
967;BME280;56108;48.730;9.304;2023-06-26T05:34:38;97570.09;;;28.86;40.19
967;BME280;56108;48.730;9.304;2023-06-26T05:36:49;97568.56;;;28.97;39.76
967;BME280;56108;48.730;9.304;2023-06-26T05:39:00;97572.50;;;28.76;39.22
967;BME280;56108;48.730;9.304;2023-06-26T05:41:09;97565.72;;;29.54;38.79
967;BME280;56108;48.730;9.304;2023-06-26T05:43:18;97578.28;;;30.47;37.29
967;BME280;56108;48.730;9.304;2023-06-26T05:45:35;97574.00;;;30.21;36.84
967;BME280;56108;48.730;9.304;2023-06-26T05:47:43;97581.34;;;29.90;38.06
967;BME280;56108;48.730;9.304;2023-06-26T05:49:52;97579.34;;;29.97;37.44
967;BME280;56108;48.730;9.304;2023-06-26T05:52:00;97559.56;;;27.11;42.71
967;BME280;56108;48.730;9.304;2023-06-26T05:54:10;97558.06;;;26.62;43.75
967;BME280;56108;48.730;9.304;2023-06-26T05:56:19;97562.50;;;27.94;42.69
967;BME280;56108;48.730;9.304;2023-06-26T05:58:28;97561.78;;;27.53;42.57
967;BME280;56108;48.730;9.304;2023-06-26T06:00:39;97570.56;;;28.83;40.31
967;BME280;56108;48.730;9.304;2023-06-26T06:02:47;97583.78;;;30.88;37.18
967;BME280;56108;48.730;9.304;2023-06-26T06:04:59;97585.72;;;31.70;35.31
967;BME280;56108;48.730;9.304;2023-06-26T06:07:08;97593.03;;;31.53;34.79
967;BME280;56108;48.730;9.304;2023-06-26T06:09:17;97582.63;;;31.19;35.88
967;BME280;56108;48.730;9.304;2023-06-26T06:11:25;97570.28;;;28.67;39.49
967;BME280;56108;48.730;9.304;2023-06-26T06:13:34;97568.13;;;29.00;40.01
967;BME280;56108;48.730;9.304;2023-06-26T06:15:45;97573.19;;;30.62;36.97
967;BME280;56108;48.730;9.304;2023-06-26T06:17:56;97570.97;;;30.71;37.06
967;BME280;56108;48.730;9.304;2023-06-26T06:20:06;97578.56;;;30.08;37.50
967;BME280;56108;48.730;9.304;2023-06-26T06:22:15;97569.16;;;29.68;37.96
967;BME280;56108;48.730;9.304;2023-06-26T06:24:24;97575.28;;;30.48;37.03
967;BME280;56108;48.730;9.304;2023-06-26T06:26:32;97578.81;;;31.44;36.57
967;BME280;56108;48.730;9.304;2023-06-26T06:28:40;97575.47;;;31.30;36.19
967;BME280;56108;48.730;9.304;2023-06-26T06:30:51;97571.09;;;30.46;37.48
967;BME280;56108;48.730;9.304;2023-06-26T06:32:59;97585.69;;;32.62;33.44
967;BME280;56108;48.730;9.304;2023-06-26T06:35:10;97581.16;;;31.76;34.55
967;BME280;56108;48.730;9.304;2023-06-26T06:37:18;97593.78;;;33.48;32.60
967;BME280;56108;48.730;9.304;2023-06-26T06:39:26;97588.63;;;33.73;31.33
967;BME280;56108;48.730;9.304;2023-06-26T06:41:35;97589.84;;;32.48;33.53
967;BME280;56108;48.730;9.304;2023-06-26T06:43:49;97596.19;;;34.98;30.36
967;BME280;56108;48.730;9.304;2023-06-26T06:46:00;97595.38;;;34.75;30.56
967;BME280;56108;48.730;9.304;2023-06-26T06:48:08;97593.22;;;34.77;30.59
967;BME280;56108;48.730;9.304;2023-06-26T06:50:16;97598.25;;;36.55;28.24
967;BME280;56108;48.730;9.304;2023-06-26T06:52:24;97603.53;;;37.74;26.80
967;BME280;56108;48.730;9.304;2023-06-26T06:54:51;97531.03;;;34.53;30.65
967;BME280;56108;48.730;9.304;2023-06-26T06:56:59;97525.56;;;36.43;28.23
967;BME280;56108;48.730;9.304;2023-06-26T06:59:08;97536.72;;;38.15;25.58
967;BME280;56108;48.730;9.304;2023-06-26T07:01:19;97524.22;;;36.66;27.59
967;BME280;56108;48.730;9.304;2023-06-26T07:03:27;97523.94;;;37.44;26.53
967;BME280;56108;48.730;9.304;2023-06-26T07:05:35;97517.50;;;37.53;26.15
967;BME280;56108;48.730;9.304;2023-06-26T07:07:43;97525.50;;;37.85;25.98
967;BME280;56108;48.730;9.304;2023-06-26T07:09:51;97515.16;;;35.40;28.33
967;BME280;56108;48.730;9.304;2023-06-26T07:12:00;97514.28;;;35.87;28.31
967;BME280;56108;48.730;9.304;2023-06-26T07:14:08;97508.69;;;35.29;29.69
967;BME280;56108;48.730;9.304;2023-06-26T07:16:19;97503.13;;;33.79;31.67
967;BME280;56108;48.730;9.304;2023-06-26T07:18:27;97505.94;;;33.23;32.42
967;BME280;56108;48.730;9.304;2023-06-26T07:20:36;97500.41;;;32.10;33.63
967;BME280;56108;48.730;9.304;2023-06-26T07:22:44;97507.59;;;33.85;31.67
967;BME280;56108;48.730;9.304;2023-06-26T07:24:52;97504.44;;;31.79;34.05
967;BME280;56108;48.730;9.304;2023-06-26T07:27:01;97494.63;;;31.31;35.59
967;BME280;56108;48.730;9.304;2023-06-26T07:29:10;97503.44;;;33.21;32.26
967;BME280;56108;48.730;9.304;2023-06-26T07:31:20;97503.19;;;33.84;31.52
967;BME280;56108;48.730;9.304;2023-06-26T07:33:28;97502.22;;;32.79;33.29
967;BME280;56108;48.730;9.304;2023-06-26T07:35:37;97505.03;;;32.21;34.25
967;BME280;56108;48.730;9.304;2023-06-26T07:37:45;97504.44;;;32.82;33.43
967;BME280;56108;48.730;9.304;2023-06-26T07:39:53;97505.94;;;34.33;32.06
967;BME280;56108;48.730;9.304;2023-06-26T07:42:01;97508.84;;;33.33;32.42
967;BME280;56108;48.730;9.304;2023-06-26T07:44:09;97507.22;;;33.76;32.37
967;BME280;56108;48.730;9.304;2023-06-26T07:46:20;97509.56;;;35.29;30.12
967;BME280;56108;48.730;9.304;2023-06-26T07:48:29;97506.69;;;35.14;30.27
967;BME280;56108;48.730;9.304;2023-06-26T07:50:39;97512.81;;;35.21;30.51
967;BME280;56108;48.730;9.304;2023-06-26T07:52:47;97517.22;;;37.60;27.66
967;BME280;56108;48.730;9.304;2023-06-26T07:54:55;97506.16;;;34.85;29.92
967;BME280;56108;48.730;9.304;2023-06-26T07:57:04;97503.34;;;32.83;33.66
967;BME280;56108;48.730;9.304;2023-06-26T07:59:13;97506.06;;;33.33;31.59
967;BME280;56108;48.730;9.304;2023-06-26T08:01:24;97511.41;;;33.79;31.13
967;BME280;56108;48.730;9.304;2023-06-26T08:03:32;97516.66;;;35.15;29.41
967;BME280;56108;48.730;9.304;2023-06-26T08:05:41;97511.41;;;35.14;28.84
967;BME280;56108;48.730;9.304;2023-06-26T08:07:49;97506.41;;;33.37;31.90
967;BME280;56108;48.730;9.304;2023-06-26T08:09:57;97509.09;;;33.15;32.03
967;BME280;56108;48.730;9.304;2023-06-26T08:12:06;97509.88;;;34.10;31.95
967;BME280;56108;48.730;9.304;2023-06-26T08:14:17;97507.38;;;34.40;30.30
967;BME280;56108;48.730;9.304;2023-06-26T08:16:28;97501.44;;;32.21;33.21
967;BME280;56108;48.730;9.304;2023-06-26T08:18:36;97502.94;;;33.63;32.22
967;BME280;56108;48.730;9.304;2023-06-26T08:20:44;97499.41;;;33.68;31.08
967;BME280;56108;48.730;9.304;2023-06-26T08:22:52;97496.75;;;33.17;31.31
967;BME280;56108;48.730;9.304;2023-06-26T08:25:00;97503.09;;;36.34;27.90
967;BME280;56108;48.730;9.304;2023-06-26T08:27:08;97500.88;;;36.36;26.41
967;BME280;56108;48.730;9.304;2023-06-26T08:29:16;97501.69;;;36.37;26.90
967;BME280;56108;48.730;9.304;2023-06-26T08:31:24;97492.16;;;35.97;27.27
967;BME280;56108;48.730;9.304;2023-06-26T08:33:35;97494.78;;;34.82;27.69
967;BME280;56108;48.730;9.304;2023-06-26T08:35:43;97493.19;;;35.28;27.66
967;BME280;56108;48.730;9.304;2023-06-26T08:37:51;97489.44;;;35.44;28.07
967;BME280;56108;48.730;9.304;2023-06-26T08:40:00;97494.13;;;35.96;26.33
967;BME280;56108;48.730;9.304;2023-06-26T08:42:09;97492.34;;;36.94;25.66
967;BME280;56108;48.730;9.304;2023-06-26T08:44:18;97501.47;;;36.64;24.94
967;BME280;56108;48.730;9.304;2023-06-26T08:46:30;97487.81;;;35.48;27.11
967;BME280;56108;48.730;9.304;2023-06-26T08:48:45;97491.78;;;35.68;26.77
967;BME280;56108;48.730;9.304;2023-06-26T08:50:55;97483.97;;;33.72;28.13
967;BME280;56108;48.730;9.304;2023-06-26T08:53:09;97479.34;;;33.78;29.03
967;BME280;56108;48.730;9.304;2023-06-26T08:55:19;97484.94;;;34.32;29.73
967;BME280;56108;48.730;9.304;2023-06-26T08:57:30;97488.00;;;34.62;30.27
967;BME280;56108;48.730;9.304;2023-06-26T08:59:39;97488.97;;;34.78;28.86
967;BME280;56108;48.730;9.304;2023-06-26T09:01:48;97490.34;;;34.81;28.67
967;BME280;56108;48.730;9.304;2023-06-26T09:03:58;97490.31;;;36.38;26.97
967;BME280;56108;48.730;9.304;2023-06-26T09:06:07;97487.22;;;37.57;24.91
967;BME280;56108;48.730;9.304;2023-06-26T09:08:15;97487.63;;;38.49;24.83
967;BME280;56108;48.730;9.304;2023-06-26T09:10:23;97497.22;;;39.30;23.40
967;BME280;56108;48.730;9.304;2023-06-26T09:12:31;97494.13;;;40.28;21.66
967;BME280;56108;48.730;9.304;2023-06-26T09:14:41;97488.94;;;38.96;22.01
967;BME280;56108;48.730;9.304;2023-06-26T09:16:49;97491.19;;;40.38;22.41
967;BME280;56108;48.730;9.304;2023-06-26T09:19:00;97492.59;;;40.35;21.71
967;BME280;56108;48.730;9.304;2023-06-26T09:21:10;97496.50;;;40.72;20.90
967;BME280;56108;48.730;9.304;2023-06-26T09:23:21;97489.94;;;38.76;22.31
967;BME280;56108;48.730;9.304;2023-06-26T09:25:29;97490.84;;;39.54;22.13
967;BME280;56108;48.730;9.304;2023-06-26T09:27:37;97489.81;;;40.35;22.07
967;BME280;56108;48.730;9.304;2023-06-26T09:29:46;97490.34;;;40.94;21.20
967;BME280;56108;48.730;9.304;2023-06-26T09:31:56;97489.31;;;41.04;20.74
967;BME280;56108;48.730;9.304;2023-06-26T09:34:07;97477.63;;;39.40;21.04
967;BME280;56108;48.730;9.304;2023-06-26T09:36:19;97471.00;;;39.60;22.50
967;BME280;56108;48.730;9.304;2023-06-26T09:38:29;97482.47;;;38.67;22.18
967;BME280;56108;48.730;9.304;2023-06-26T09:40:42;97474.19;;;36.04;24.78
967;BME280;56108;48.730;9.304;2023-06-26T09:42:51;97471.44;;;38.12;24.17
967;BME280;56108;48.730;9.304;2023-06-26T09:45:00;97473.97;;;39.21;21.80
967;BME280;56108;48.730;9.304;2023-06-26T09:47:08;97461.28;;;37.92;22.96
967;BME280;56108;48.730;9.304;2023-06-26T09:49:19;97462.00;;;36.05;25.69
967;BME280;56108;48.730;9.304;2023-06-26T09:51:29;97462.56;;;36.18;25.97
967;BME280;56108;48.730;9.304;2023-06-26T09:53:37;97452.47;;;35.76;28.19
967;BME280;56108;48.730;9.304;2023-06-26T09:55:46;97460.44;;;36.81;26.88
967;BME280;56108;48.730;9.304;2023-06-26T09:57:56;97455.44;;;36.78;26.03
967;BME280;56108;48.730;9.304;2023-06-26T10:00:10;97456.38;;;35.22;27.48
967;BME280;56108;48.730;9.304;2023-06-26T10:02:19;97455.06;;;34.93;28.98
967;BME280;56108;48.730;9.304;2023-06-26T10:04:30;97449.13;;;35.64;28.25
967;BME280;56108;48.730;9.304;2023-06-26T10:06:43;97460.66;;;36.18;26.50
967;BME280;56108;48.730;9.304;2023-06-26T10:08:53;97463.75;;;36.83;26.50
967;BME280;56108;48.730;9.304;2023-06-26T10:11:02;97461.22;;;36.20;27.10
967;BME280;56108;48.730;9.304;2023-06-26T10:13:15;97455.31;;;34.91;26.95
967;BME280;56108;48.730;9.304;2023-06-26T10:15:28;97453.69;;;34.58;28.00
967;BME280;56108;48.730;9.304;2023-06-26T10:17:42;97448.50;;;34.99;29.89
967;BME280;56108;48.730;9.304;2023-06-26T10:19:53;97447.25;;;35.22;29.39
967;BME280;56108;48.730;9.304;2023-06-26T10:22:05;97448.94;;;33.94;29.09
967;BME280;56108;48.730;9.304;2023-06-26T10:24:15;97458.53;;;32.70;30.85
967;BME280;56108;48.730;9.304;2023-06-26T10:26:26;97460.03;;;32.44;31.04
967;BME280;56108;48.730;9.304;2023-06-26T10:28:35;97456.81;;;31.79;34.14
967;BME280;56108;48.730;9.304;2023-06-26T10:30:46;97451.25;;;31.33;33.44
967;BME280;56108;48.730;9.304;2023-06-26T10:32:56;97444.47;;;31.53;33.31
967;BME280;56108;48.730;9.304;2023-06-26T10:35:10;97441.19;;;32.25;32.51
967;BME280;56108;48.730;9.304;2023-06-26T10:37:19;97456.06;;;33.68;31.56
967;BME280;56108;48.730;9.304;2023-06-26T10:39:27;97446.78;;;34.28;31.88
967;BME280;56108;48.730;9.304;2023-06-26T10:41:41;97456.44;;;33.99;31.59
967;BME280;56108;48.730;9.304;2023-06-26T10:44:09;97462.44;;;33.47;31.53
967;BME280;56108;48.730;9.304;2023-06-26T10:46:18;97459.63;;;32.69;32.96
967;BME280;56108;48.730;9.304;2023-06-26T10:48:29;97453.25;;;31.90;33.34
967;BME280;56108;48.730;9.304;2023-06-26T10:50:40;97455.00;;;31.96;33.90
967;BME280;56108;48.730;9.304;2023-06-26T10:53:14;97453.63;;;31.18;35.30
967;BME280;56108;48.730;9.304;2023-06-26T10:55:27;97455.09;;;31.09;36.79
967;BME280;56108;48.730;9.304;2023-06-26T10:57:36;97453.28;;;30.67;37.22
967;BME280;56108;48.730;9.304;2023-06-26T10:59:45;97459.09;;;30.48;37.89
967;BME280;56108;48.730;9.304;2023-06-26T11:01:57;97464.00;;;29.74;38.43
967;BME280;56108;48.730;9.304;2023-06-26T11:04:14;97454.19;;;29.66;39.33
967;BME280;56108;48.730;9.304;2023-06-26T11:06:25;97454.69;;;30.35;38.32
967;BME280;56108;48.730;9.304;2023-06-26T11:08:44;97463.00;;;31.69;35.74
967;BME280;56108;48.730;9.304;2023-06-26T11:10:54;97475.50;;;32.34;34.35
967;BME280;56108;48.730;9.304;2023-06-26T11:13:04;97467.44;;;32.61;33.80
967;BME280;56108;48.730;9.304;2023-06-26T11:15:14;97456.84;;;32.69;34.37
967;BME280;56108;48.730;9.304;2023-06-26T11:17:24;97457.91;;;33.02;35.07
967;BME280;56108;48.730;9.304;2023-06-26T11:19:34;97463.41;;;33.41;33.43
967;BME280;56108;48.730;9.304;2023-06-26T11:21:45;97455.66;;;33.38;32.77
967;BME280;56108;48.730;9.304;2023-06-26T11:23:54;97460.66;;;33.41;33.14
967;BME280;56108;48.730;9.304;2023-06-26T11:26:16;97476.28;;;33.35;33.64
967;BME280;56108;48.730;9.304;2023-06-26T11:28:26;97468.25;;;33.50;31.30
967;BME280;56108;48.730;9.304;2023-06-26T11:30:36;97462.50;;;33.13;32.98
967;BME280;56108;48.730;9.304;2023-06-26T11:32:45;97452.88;;;33.16;32.86
967;BME280;56108;48.730;9.304;2023-06-26T11:34:53;97469.56;;;33.43;31.66
967;BME280;56108;48.730;9.304;2023-06-26T11:37:04;97459.59;;;33.64;32.67
967;BME280;56108;48.730;9.304;2023-06-26T11:39:13;97462.59;;;33.84;32.86
967;BME280;56108;48.730;9.304;2023-06-26T11:41:23;97472.47;;;33.80;32.43
967;BME280;56108;48.730;9.304;2023-06-26T11:43:33;97493.53;;;34.08;32.45
967;BME280;56108;48.730;9.304;2023-06-26T11:45:41;97481.75;;;34.18;32.52
967;BME280;56108;48.730;9.304;2023-06-26T11:47:50;97475.78;;;33.99;31.87